sensor_id;sensor_type;location;lat;lon;timestamp;P1;durP1;ratioP1;P2;durP2;ratioP2
11837;SDS011;5978;51.020;6.764;2023-02-11T00:01:09;31.80;;;20.33;;
11837;SDS011;5978;51.020;6.764;2023-02-11T00:03:36;33.08;;;18.55;;
11837;SDS011;5978;51.020;6.764;2023-02-11T00:06:04;38.55;;;18.90;;
11837;SDS011;5978;51.020;6.764;2023-02-11T00:08:33;34.17;;;20.55;;
11837;SDS011;5978;51.020;6.764;2023-02-11T00:10:59;36.90;;;22.77;;
11837;SDS011;5978;51.020;6.764;2023-02-11T00:13:25;31.30;;;18.90;;
11837;SDS011;5978;51.020;6.764;2023-02-11T00:15:51;39.47;;;20.75;;
11837;SDS011;5978;51.020;6.764;2023-02-11T00:18:17;39.30;;;22.70;;
11837;SDS011;5978;51.020;6.764;2023-02-11T00:20:43;28.17;;;19.13;;
11837;SDS011;5978;51.020;6.764;2023-02-11T00:23:09;27.63;;;19.63;;
11837;SDS011;5978;51.020;6.764;2023-02-11T00:25:38;37.43;;;19.90;;
11837;SDS011;5978;51.020;6.764;2023-02-11T00:28:08;34.83;;;21.48;;
11837;SDS011;5978;51.020;6.764;2023-02-11T00:30:34;32.13;;;18.48;;
11837;SDS011;5978;51.020;6.764;2023-02-11T00:33:00;36.57;;;20.40;;
11837;SDS011;5978;51.020;6.764;2023-02-11T00:35:26;30.73;;;19.85;;
11837;SDS011;5978;51.020;6.764;2023-02-11T00:37:52;28.73;;;19.73;;
11837;SDS011;5978;51.020;6.764;2023-02-11T00:40:19;33.10;;;19.45;;
11837;SDS011;5978;51.020;6.764;2023-02-11T00:42:44;33.33;;;20.20;;
11837;SDS011;5978;51.020;6.764;2023-02-11T00:45:10;31.87;;;19.50;;
11837;SDS011;5978;51.020;6.764;2023-02-11T00:47:36;32.43;;;19.63;;
11837;SDS011;5978;51.020;6.764;2023-02-11T00:50:02;31.83;;;20.87;;
11837;SDS011;5978;51.020;6.764;2023-02-11T00:52:29;33.78;;;19.63;;
11837;SDS011;5978;51.020;6.764;2023-02-11T00:54:55;31.70;;;20.95;;
11837;SDS011;5978;51.020;6.764;2023-02-11T00:57:21;34.50;;;21.50;;
11837;SDS011;5978;51.020;6.764;2023-02-11T00:59:46;32.70;;;20.77;;
11837;SDS011;5978;51.020;6.764;2023-02-11T01:02:12;40.67;;;20.77;;
11837;SDS011;5978;51.020;6.764;2023-02-11T01:04:38;32.97;;;20.70;;
11837;SDS011;5978;51.020;6.764;2023-02-11T01:07:03;37.40;;;20.60;;
11837;SDS011;5978;51.020;6.764;2023-02-11T01:09:29;33.43;;;20.97;;
11837;SDS011;5978;51.020;6.764;2023-02-11T01:11:54;36.63;;;18.70;;
11837;SDS011;5978;51.020;6.764;2023-02-11T01:14:20;35.40;;;20.23;;
11837;SDS011;5978;51.020;6.764;2023-02-11T01:16:46;36.10;;;20.07;;
11837;SDS011;5978;51.020;6.764;2023-02-11T01:19:11;34.17;;;20.17;;
11837;SDS011;5978;51.020;6.764;2023-02-11T01:21:37;37.30;;;19.87;;
11837;SDS011;5978;51.020;6.764;2023-02-11T01:24:02;35.73;;;20.27;;
11837;SDS011;5978;51.020;6.764;2023-02-11T01:26:28;33.03;;;20.47;;
11837;SDS011;5978;51.020;6.764;2023-02-11T01:28:53;31.80;;;20.70;;
11837;SDS011;5978;51.020;6.764;2023-02-11T01:31:19;37.17;;;21.47;;
11837;SDS011;5978;51.020;6.764;2023-02-11T01:33:45;37.40;;;20.37;;
11837;SDS011;5978;51.020;6.764;2023-02-11T01:36:10;34.70;;;21.17;;
11837;SDS011;5978;51.020;6.764;2023-02-11T01:38:36;36.20;;;21.80;;
11837;SDS011;5978;51.020;6.764;2023-02-11T01:41:06;37.63;;;20.88;;
11837;SDS011;5978;51.020;6.764;2023-02-11T01:43:34;40.33;;;23.65;;
11837;SDS011;5978;51.020;6.764;2023-02-11T01:46:30;32.33;;;21.27;;
11837;SDS011;5978;51.020;6.764;2023-02-11T01:49:09;31.60;;;18.95;;
11837;SDS011;5978;51.020;6.764;2023-02-11T01:51:43;34.13;;;20.88;;
11837;SDS011;5978;51.020;6.764;2023-02-11T01:54:19;38.05;;;22.30;;
11837;SDS011;5978;51.020;6.764;2023-02-11T01:57:07;44.35;;;21.80;;
11837;SDS011;5978;51.020;6.764;2023-02-11T02:02:38;36.78;;;21.48;;
11837;SDS011;5978;51.020;6.764;2023-02-11T02:05:27;43.13;;;25.42;;
11837;SDS011;5978;51.020;6.764;2023-02-11T02:08:27;34.78;;;20.50;;
11837;SDS011;5978;51.020;6.764;2023-02-11T02:10:56;35.78;;;19.58;;
11837;SDS011;5978;51.020;6.764;2023-02-11T02:13:25;42.20;;;20.95;;
11837;SDS011;5978;51.020;6.764;2023-02-11T02:35:56;38.83;;;22.42;;
11837;SDS011;5978;51.020;6.764;2023-02-11T02:38:39;37.65;;;20.85;;
11837;SDS011;5978;51.020;6.764;2023-02-11T02:41:15;44.47;;;24.58;;
11837;SDS011;5978;51.020;6.764;2023-02-11T02:43:44;34.55;;;22.05;;
11837;SDS011;5978;51.020;6.764;2023-02-11T02:48:41;44.60;;;24.98;;
11837;SDS011;5978;51.020;6.764;2023-02-11T02:59:23;43.00;;;24.08;;
11837;SDS011;5978;51.020;6.764;2023-02-11T03:04:36;43.10;;;24.40;;
11837;SDS011;5978;51.020;6.764;2023-02-11T03:07:33;36.58;;;21.45;;
11837;SDS011;5978;51.020;6.764;2023-02-11T03:10:33;43.08;;;23.70;;
11837;SDS011;5978;51.020;6.764;2023-02-11T03:13:05;41.05;;;23.70;;
11837;SDS011;5978;51.020;6.764;2023-02-11T03:15:33;39.67;;;23.05;;
11837;SDS011;5978;51.020;6.764;2023-02-11T03:18:03;35.30;;;22.60;;
11837;SDS011;5978;51.020;6.764;2023-02-11T03:20:34;42.75;;;24.85;;
11837;SDS011;5978;51.020;6.764;2023-02-11T03:23:05;39.72;;;23.65;;
11837;SDS011;5978;51.020;6.764;2023-02-11T03:25:34;37.60;;;20.85;;
11837;SDS011;5978;51.020;6.764;2023-02-11T03:28:39;46.78;;;23.33;;
11837;SDS011;5978;51.020;6.764;2023-02-11T03:33:56;40.45;;;20.92;;
11837;SDS011;5978;51.020;6.764;2023-02-11T03:36:35;37.38;;;21.65;;
11837;SDS011;5978;51.020;6.764;2023-02-11T03:39:07;38.78;;;24.92;;
11837;SDS011;5978;51.020;6.764;2023-02-11T03:41:34;36.53;;;22.50;;
11837;SDS011;5978;51.020;6.764;2023-02-11T03:44:02;41.72;;;21.90;;
11837;SDS011;5978;51.020;6.764;2023-02-11T03:46:30;37.78;;;22.70;;
11837;SDS011;5978;51.020;6.764;2023-02-11T03:49:00;44.45;;;22.35;;
11837;SDS011;5978;51.020;6.764;2023-02-11T03:51:29;37.25;;;21.25;;
11837;SDS011;5978;51.020;6.764;2023-02-11T03:53:56;39.47;;;22.52;;
11837;SDS011;5978;51.020;6.764;2023-02-11T03:56:26;36.55;;;20.52;;
11837;SDS011;5978;51.020;6.764;2023-02-11T03:58:56;38.22;;;22.05;;
11837;SDS011;5978;51.020;6.764;2023-02-11T04:01:22;39.70;;;21.33;;
11837;SDS011;5978;51.020;6.764;2023-02-11T04:03:47;45.93;;;20.83;;
11837;SDS011;5978;51.020;6.764;2023-02-11T04:06:13;44.97;;;21.30;;
11837;SDS011;5978;51.020;6.764;2023-02-11T04:08:39;36.23;;;21.20;;
11837;SDS011;5978;51.020;6.764;2023-02-11T04:11:04;40.23;;;21.30;;
11837;SDS011;5978;51.020;6.764;2023-02-11T04:13:30;36.43;;;19.13;;
11837;SDS011;5978;51.020;6.764;2023-02-11T04:15:56;33.43;;;21.10;;
11837;SDS011;5978;51.020;6.764;2023-02-11T04:18:21;40.00;;;20.70;;
11837;SDS011;5978;51.020;6.764;2023-02-11T04:20:47;34.47;;;20.37;;
11837;SDS011;5978;51.020;6.764;2023-02-11T04:23:14;36.60;;;19.92;;
11837;SDS011;5978;51.020;6.764;2023-02-11T04:25:40;42.43;;;21.10;;
11837;SDS011;5978;51.020;6.764;2023-02-11T04:28:06;36.83;;;21.55;;
11837;SDS011;5978;51.020;6.764;2023-02-11T04:30:32;37.70;;;19.00;;
11837;SDS011;5978;51.020;6.764;2023-02-11T04:32:57;33.77;;;20.13;;
11837;SDS011;5978;51.020;6.764;2023-02-11T04:35:23;41.30;;;22.40;;
11837;SDS011;5978;51.020;6.764;2023-02-11T04:37:49;38.40;;;22.20;;
11837;SDS011;5978;51.020;6.764;2023-02-11T04:40:14;42.23;;;21.20;;
11837;SDS011;5978;51.020;6.764;2023-02-11T04:42:40;38.93;;;20.13;;
11837;SDS011;5978;51.020;6.764;2023-02-11T04:45:06;38.43;;;21.40;;
11837;SDS011;5978;51.020;6.764;2023-02-11T04:47:32;35.27;;;20.53;;
11837;SDS011;5978;51.020;6.764;2023-02-11T04:49:58;37.93;;;21.43;;
11837;SDS011;5978;51.020;6.764;2023-02-11T04:52:23;39.73;;;19.67;;
11837;SDS011;5978;51.020;6.764;2023-02-11T04:54:49;38.63;;;18.37;;
11837;SDS011;5978;51.020;6.764;2023-02-11T04:57:14;38.83;;;19.70;;
11837;SDS011;5978;51.020;6.764;2023-02-11T04:59:40;39.53;;;20.23;;
11837;SDS011;5978;51.020;6.764;2023-02-11T05:02:06;45.27;;;20.60;;
11837;SDS011;5978;51.020;6.764;2023-02-11T05:04:31;36.33;;;21.27;;
11837;SDS011;5978;51.020;6.764;2023-02-11T05:06:57;44.37;;;20.37;;
11837;SDS011;5978;51.020;6.764;2023-02-11T05:09:22;32.07;;;20.00;;
11837;SDS011;5978;51.020;6.764;2023-02-11T05:11:48;37.30;;;20.23;;
11837;SDS011;5978;51.020;6.764;2023-02-11T05:14:14;31.03;;;19.30;;
11837;SDS011;5978;51.020;6.764;2023-02-11T05:16:39;45.70;;;22.17;;
11837;SDS011;5978;51.020;6.764;2023-02-11T05:19:05;32.83;;;20.93;;
11837;SDS011;5978;51.020;6.764;2023-02-11T05:21:30;38.30;;;23.67;;
11837;SDS011;5978;51.020;6.764;2023-02-11T05:23:56;45.67;;;21.80;;
11837;SDS011;5978;51.020;6.764;2023-02-11T05:26:21;34.53;;;20.80;;
11837;SDS011;5978;51.020;6.764;2023-02-11T05:28:47;43.60;;;22.50;;
11837;SDS011;5978;51.020;6.764;2023-02-11T05:31:13;43.80;;;23.53;;
11837;SDS011;5978;51.020;6.764;2023-02-11T05:33:38;43.23;;;23.17;;
11837;SDS011;5978;51.020;6.764;2023-02-11T05:36:06;44.13;;;24.15;;
11837;SDS011;5978;51.020;6.764;2023-02-11T05:38:34;51.83;;;24.92;;
11837;SDS011;5978;51.020;6.764;2023-02-11T05:41:00;42.55;;;22.58;;
11837;SDS011;5978;51.020;6.764;2023-02-11T05:43:27;46.65;;;23.65;;
11837;SDS011;5978;51.020;6.764;2023-02-11T05:45:52;44.77;;;24.63;;
11837;SDS011;5978;51.020;6.764;2023-02-11T05:48:18;44.20;;;22.50;;
11837;SDS011;5978;51.020;6.764;2023-02-11T05:50:44;43.33;;;22.93;;
11837;SDS011;5978;51.020;6.764;2023-02-11T05:53:10;43.47;;;23.87;;
11837;SDS011;5978;51.020;6.764;2023-02-11T05:55:36;56.05;;;26.48;;
11837;SDS011;5978;51.020;6.764;2023-02-11T05:58:02;44.75;;;22.80;;
11837;SDS011;5978;51.020;6.764;2023-02-11T06:00:29;44.92;;;24.63;;
11837;SDS011;5978;51.020;6.764;2023-02-11T06:02:55;40.20;;;24.33;;
11837;SDS011;5978;51.020;6.764;2023-02-11T06:05:20;48.80;;;24.97;;
11837;SDS011;5978;51.020;6.764;2023-02-11T06:07:46;51.30;;;25.73;;
11837;SDS011;5978;51.020;6.764;2023-02-11T06:10:11;51.40;;;26.37;;
11837;SDS011;5978;51.020;6.764;2023-02-11T06:12:37;55.50;;;28.47;;
11837;SDS011;5978;51.020;6.764;2023-02-11T06:15:03;52.20;;;25.90;;
11837;SDS011;5978;51.020;6.764;2023-02-11T06:17:30;52.33;;;25.98;;
11837;SDS011;5978;51.020;6.764;2023-02-11T06:19:57;51.30;;;26.23;;
11837;SDS011;5978;51.020;6.764;2023-02-11T06:22:23;43.72;;;25.60;;
11837;SDS011;5978;51.020;6.764;2023-02-11T06:24:49;48.97;;;24.17;;
11837;SDS011;5978;51.020;6.764;2023-02-11T06:27:14;48.50;;;26.43;;
11837;SDS011;5978;51.020;6.764;2023-02-11T06:29:40;47.37;;;26.60;;
11837;SDS011;5978;51.020;6.764;2023-02-11T06:32:05;42.50;;;24.93;;
11837;SDS011;5978;51.020;6.764;2023-02-11T06:34:31;54.80;;;24.60;;
11837;SDS011;5978;51.020;6.764;2023-02-11T06:36:56;46.00;;;26.17;;
11837;SDS011;5978;51.020;6.764;2023-02-11T06:39:22;57.80;;;27.33;;
11837;SDS011;5978;51.020;6.764;2023-02-11T06:41:47;51.50;;;27.67;;
11837;SDS011;5978;51.020;6.764;2023-02-11T06:44:13;44.43;;;24.93;;
11837;SDS011;5978;51.020;6.764;2023-02-11T06:46:38;54.43;;;27.97;;
11837;SDS011;5978;51.020;6.764;2023-02-11T06:49:04;50.80;;;25.87;;
11837;SDS011;5978;51.020;6.764;2023-02-11T06:51:29;51.57;;;26.00;;
11837;SDS011;5978;51.020;6.764;2023-02-11T06:53:55;61.30;;;26.67;;
11837;SDS011;5978;51.020;6.764;2023-02-11T06:56:21;48.03;;;26.30;;
11837;SDS011;5978;51.020;6.764;2023-02-11T06:58:50;50.88;;;26.98;;
11837;SDS011;5978;51.020;6.764;2023-02-11T07:01:20;52.38;;;25.90;;
11837;SDS011;5978;51.020;6.764;2023-02-11T07:03:46;48.40;;;25.55;;
11837;SDS011;5978;51.020;6.764;2023-02-11T07:06:14;49.50;;;26.03;;
11837;SDS011;5978;51.020;6.764;2023-02-11T07:08:43;59.53;;;27.70;;
11837;SDS011;5978;51.020;6.764;2023-02-11T07:13:37;46.08;;;25.20;;
11837;SDS011;5978;51.020;6.764;2023-02-11T07:16:04;53.13;;;26.00;;
11837;SDS011;5978;51.020;6.764;2023-02-11T07:18:31;53.50;;;28.40;;
11837;SDS011;5978;51.020;6.764;2023-02-11T07:20:56;49.47;;;27.63;;
11837;SDS011;5978;51.020;6.764;2023-02-11T07:23:22;55.13;;;26.80;;
11837;SDS011;5978;51.020;6.764;2023-02-11T07:25:47;54.50;;;27.23;;
11837;SDS011;5978;51.020;6.764;2023-02-11T07:28:13;54.07;;;28.43;;
11837;SDS011;5978;51.020;6.764;2023-02-11T07:30:38;52.97;;;26.80;;
11837;SDS011;5978;51.020;6.764;2023-02-11T07:33:04;56.23;;;27.23;;
11837;SDS011;5978;51.020;6.764;2023-02-11T07:35:29;54.70;;;28.70;;
11837;SDS011;5978;51.020;6.764;2023-02-11T07:37:55;63.57;;;27.27;;
11837;SDS011;5978;51.020;6.764;2023-02-11T07:40:21;66.57;;;27.03;;
11837;SDS011;5978;51.020;6.764;2023-02-11T07:42:46;57.00;;;26.90;;
11837;SDS011;5978;51.020;6.764;2023-02-11T07:45:12;62.17;;;27.97;;
11837;SDS011;5978;51.020;6.764;2023-02-11T07:47:38;53.53;;;25.93;;
11837;SDS011;5978;51.020;6.764;2023-02-11T07:50:03;52.73;;;27.27;;
11837;SDS011;5978;51.020;6.764;2023-02-11T07:52:30;70.65;;;30.55;;
11837;SDS011;5978;51.020;6.764;2023-02-11T07:54:56;60.73;;;26.57;;
11837;SDS011;5978;51.020;6.764;2023-02-11T07:57:22;68.27;;;30.23;;
11837;SDS011;5978;51.020;6.764;2023-02-11T07:59:47;60.80;;;29.27;;
11837;SDS011;5978;51.020;6.764;2023-02-11T08:02:13;48.07;;;25.77;;
11837;SDS011;5978;51.020;6.764;2023-02-11T08:04:38;61.40;;;28.40;;
11837;SDS011;5978;51.020;6.764;2023-02-11T08:07:04;63.07;;;27.27;;
11837;SDS011;5978;51.020;6.764;2023-02-11T08:09:30;57.72;;;25.98;;
11837;SDS011;5978;51.020;6.764;2023-02-11T08:11:56;64.77;;;27.57;;
11837;SDS011;5978;51.020;6.764;2023-02-11T08:14:21;54.90;;;26.97;;
11837;SDS011;5978;51.020;6.764;2023-02-11T08:16:49;56.40;;;28.67;;
11837;SDS011;5978;51.020;6.764;2023-02-11T08:19:14;59.23;;;27.03;;
11837;SDS011;5978;51.020;6.764;2023-02-11T08:21:41;54.15;;;26.60;;
11837;SDS011;5978;51.020;6.764;2023-02-11T08:24:07;60.15;;;27.70;;
11837;SDS011;5978;51.020;6.764;2023-02-11T08:26:33;57.83;;;26.10;;
11837;SDS011;5978;51.020;6.764;2023-02-11T08:28:59;60.22;;;26.70;;
11837;SDS011;5978;51.020;6.764;2023-02-11T08:31:32;55.45;;;28.55;;
11837;SDS011;5978;51.020;6.764;2023-02-11T08:33:59;66.10;;;27.33;;
11837;SDS011;5978;51.020;6.764;2023-02-11T08:36:27;60.95;;;25.77;;
11837;SDS011;5978;51.020;6.764;2023-02-11T08:38:57;52.10;;;27.13;;
11837;SDS011;5978;51.020;6.764;2023-02-11T08:41:23;59.63;;;26.45;;
11837;SDS011;5978;51.020;6.764;2023-02-11T08:43:49;52.92;;;25.33;;
11837;SDS011;5978;51.020;6.764;2023-02-11T08:46:16;51.20;;;24.63;;
11837;SDS011;5978;51.020;6.764;2023-02-11T08:48:43;54.15;;;28.35;;
11837;SDS011;5978;51.020;6.764;2023-02-11T08:51:15;59.33;;;25.75;;
11837;SDS011;5978;51.020;6.764;2023-02-11T08:53:42;61.63;;;24.55;;
11837;SDS011;5978;51.020;6.764;2023-02-11T08:56:08;48.60;;;24.27;;
11837;SDS011;5978;51.020;6.764;2023-02-11T08:58:35;56.38;;;25.58;;
11837;SDS011;5978;51.020;6.764;2023-02-11T09:01:00;51.70;;;26.33;;
11837;SDS011;5978;51.020;6.764;2023-02-11T09:03:26;49.47;;;23.90;;
11837;SDS011;5978;51.020;6.764;2023-02-11T09:05:52;50.80;;;24.13;;
11837;SDS011;5978;51.020;6.764;2023-02-11T09:08:19;60.22;;;25.17;;
11837;SDS011;5978;51.020;6.764;2023-02-11T09:10:45;51.58;;;25.45;;
11837;SDS011;5978;51.020;6.764;2023-02-11T09:13:10;53.40;;;26.37;;
11837;SDS011;5978;51.020;6.764;2023-02-11T09:15:36;48.13;;;23.97;;
11837;SDS011;5978;51.020;6.764;2023-02-11T09:18:02;58.93;;;26.90;;
11837;SDS011;5978;51.020;6.764;2023-02-11T09:20:28;53.00;;;25.70;;
11837;SDS011;5978;51.020;6.764;2023-02-11T09:22:55;54.47;;;25.70;;
11837;SDS011;5978;51.020;6.764;2023-02-11T09:25:22;59.55;;;25.20;;
11837;SDS011;5978;51.020;6.764;2023-02-11T09:27:48;57.97;;;26.97;;
11837;SDS011;5978;51.020;6.764;2023-02-11T09:30:15;60.63;;;28.67;;
11837;SDS011;5978;51.020;6.764;2023-02-11T09:32:41;62.37;;;25.90;;
11837;SDS011;5978;51.020;6.764;2023-02-11T09:35:06;57.37;;;25.67;;
11837;SDS011;5978;51.020;6.764;2023-02-11T09:37:32;58.47;;;26.53;;
11837;SDS011;5978;51.020;6.764;2023-02-11T09:39:58;57.23;;;27.07;;
11837;SDS011;5978;51.020;6.764;2023-02-11T09:42:29;54.20;;;26.60;;
11837;SDS011;5978;51.020;6.764;2023-02-11T09:45:12;53.25;;;26.65;;
11837;SDS011;5978;51.020;6.764;2023-02-11T09:47:53;56.60;;;26.30;;
11837;SDS011;5978;51.020;6.764;2023-02-11T09:50:23;59.17;;;26.77;;
11837;SDS011;5978;51.020;6.764;2023-02-11T09:55:44;51.95;;;24.98;;
11837;SDS011;5978;51.020;6.764;2023-02-11T09:58:14;52.65;;;24.20;;
11837;SDS011;5978;51.020;6.764;2023-02-11T10:00:44;49.65;;;25.50;;
11837;SDS011;5978;51.020;6.764;2023-02-11T10:08:43;52.63;;;24.98;;
11837;SDS011;5978;51.020;6.764;2023-02-11T10:21:54;47.83;;;25.08;;
11837;SDS011;5978;51.020;6.764;2023-02-11T10:24:22;47.47;;;26.10;;
11837;SDS011;5978;51.020;6.764;2023-02-11T10:26:49;47.28;;;24.65;;
11837;SDS011;5978;51.020;6.764;2023-02-11T10:31:44;44.88;;;23.67;;
11837;SDS011;5978;51.020;6.764;2023-02-11T10:34:11;49.83;;;24.48;;
11837;SDS011;5978;51.020;6.764;2023-02-11T10:36:39;43.05;;;23.70;;
11837;SDS011;5978;51.020;6.764;2023-02-11T10:39:16;45.75;;;23.88;;
11837;SDS011;5978;51.020;6.764;2023-02-11T10:41:46;60.08;;;26.15;;
11837;SDS011;5978;51.020;6.764;2023-02-11T10:44:22;60.65;;;25.33;;
11837;SDS011;5978;51.020;6.764;2023-02-11T10:47:03;50.42;;;25.17;;
11837;SDS011;5978;51.020;6.764;2023-02-11T10:49:40;51.70;;;26.25;;
11837;SDS011;5978;51.020;6.764;2023-02-11T10:57:36;47.92;;;22.48;;
11837;SDS011;5978;51.020;6.764;2023-02-11T11:02:54;55.83;;;26.60;;
11837;SDS011;5978;51.020;6.764;2023-02-11T11:05:25;43.90;;;23.48;;
11837;SDS011;5978;51.020;6.764;2023-02-11T11:08:01;49.03;;;24.20;;
11837;SDS011;5978;51.020;6.764;2023-02-11T11:13:00;52.47;;;25.60;;
11837;SDS011;5978;51.020;6.764;2023-02-11T11:15:26;49.53;;;26.20;;
11837;SDS011;5978;51.020;6.764;2023-02-11T11:18:13;46.50;;;24.40;;
11837;SDS011;5978;51.020;6.764;2023-02-11T11:20:43;57.90;;;25.42;;
11837;SDS011;5978;51.020;6.764;2023-02-11T11:23:22;49.70;;;26.15;;
11837;SDS011;5978;51.020;6.764;2023-02-11T11:28:36;54.25;;;26.05;;
11837;SDS011;5978;51.020;6.764;2023-02-11T11:31:22;51.45;;;25.27;;
11837;SDS011;5978;51.020;6.764;2023-02-11T11:33:51;53.33;;;24.95;;
11837;SDS011;5978;51.020;6.764;2023-02-11T11:36:20;50.03;;;24.80;;
11837;SDS011;5978;51.020;6.764;2023-02-11T11:38:56;50.42;;;24.40;;
11837;SDS011;5978;51.020;6.764;2023-02-11T11:41:28;52.65;;;25.48;;
11837;SDS011;5978;51.020;6.764;2023-02-11T11:44:11;53.70;;;24.63;;
11837;SDS011;5978;51.020;6.764;2023-02-11T11:46:41;49.20;;;24.40;;
11837;SDS011;5978;51.020;6.764;2023-02-11T11:49:24;57.67;;;25.65;;
11837;SDS011;5978;51.020;6.764;2023-02-11T11:51:59;48.03;;;23.95;;
11837;SDS011;5978;51.020;6.764;2023-02-11T11:54:48;52.20;;;26.02;;
11837;SDS011;5978;51.020;6.764;2023-02-11T11:57:19;51.03;;;23.30;;
11837;SDS011;5978;51.020;6.764;2023-02-11T11:59:49;55.53;;;26.48;;
11837;SDS011;5978;51.020;6.764;2023-02-11T12:05:05;52.95;;;25.65;;
11837;SDS011;5978;51.020;6.764;2023-02-11T12:15:59;56.58;;;25.67;;
11837;SDS011;5978;51.020;6.764;2023-02-11T12:21:17;57.42;;;27.85;;
11837;SDS011;5978;51.020;6.764;2023-02-11T12:26:45;58.25;;;26.38;;
11837;SDS011;5978;51.020;6.764;2023-02-11T12:32:03;54.55;;;26.20;;
11837;SDS011;5978;51.020;6.764;2023-02-11T12:34:45;52.85;;;27.65;;
11837;SDS011;5978;51.020;6.764;2023-02-11T12:43:39;56.05;;;29.08;;
11837;SDS011;5978;51.020;6.764;2023-02-11T12:54:30;52.95;;;29.13;;
11837;SDS011;5978;51.020;6.764;2023-02-11T12:57:21;58.42;;;28.38;;
11837;SDS011;5978;51.020;6.764;2023-02-11T13:05:18;54.22;;;27.75;;
11837;SDS011;5978;51.020;6.764;2023-02-11T13:08:15;57.20;;;27.35;;
11837;SDS011;5978;51.020;6.764;2023-02-11T13:10:58;51.65;;;26.25;;
11837;SDS011;5978;51.020;6.764;2023-02-11T13:13:32;57.72;;;28.23;;
11837;SDS011;5978;51.020;6.764;2023-02-11T13:16:04;56.20;;;25.67;;
11837;SDS011;5978;51.020;6.764;2023-02-11T13:24:11;54.77;;;30.00;;
11837;SDS011;5978;51.020;6.764;2023-02-11T13:26:55;56.60;;;27.55;;
11837;SDS011;5978;51.020;6.764;2023-02-11T13:29:30;58.33;;;27.38;;
11837;SDS011;5978;51.020;6.764;2023-02-11T13:32:13;56.80;;;29.02;;
11837;SDS011;5978;51.020;6.764;2023-02-11T13:37:05;54.47;;;27.70;;
11837;SDS011;5978;51.020;6.764;2023-02-11T13:39:54;54.60;;;27.48;;
11837;SDS011;5978;51.020;6.764;2023-02-11T13:42:20;66.70;;;29.02;;
11837;SDS011;5978;51.020;6.764;2023-02-11T13:44:46;55.10;;;28.47;;
11837;SDS011;5978;51.020;6.764;2023-02-11T13:47:20;51.53;;;25.73;;
11837;SDS011;5978;51.020;6.764;2023-02-11T13:49:53;55.55;;;27.73;;
11837;SDS011;5978;51.020;6.764;2023-02-11T13:52:21;63.90;;;28.40;;
11837;SDS011;5978;51.020;6.764;2023-02-11T13:54:57;58.45;;;27.27;;
11837;SDS011;5978;51.020;6.764;2023-02-11T13:57:30;63.15;;;26.85;;
11837;SDS011;5978;51.020;6.764;2023-02-11T13:59:58;60.70;;;30.20;;
11837;SDS011;5978;51.020;6.764;2023-02-11T14:02:30;60.42;;;29.20;;
11837;SDS011;5978;51.020;6.764;2023-02-11T14:08:13;65.57;;;30.77;;
11837;SDS011;5978;51.020;6.764;2023-02-11T14:10:59;61.33;;;30.20;;
11837;SDS011;5978;51.020;6.764;2023-02-11T14:14:20;63.75;;;29.98;;
11837;SDS011;5978;51.020;6.764;2023-02-11T14:19:55;58.58;;;28.73;;
11837;SDS011;5978;51.020;6.764;2023-02-11T14:27:41;59.28;;;29.25;;
11837;SDS011;5978;51.020;6.764;2023-02-11T14:38:42;62.20;;;31.02;;
11837;SDS011;5978;51.020;6.764;2023-02-11T14:41:26;58.63;;;30.17;;
11837;SDS011;5978;51.020;6.764;2023-02-11T14:43:59;65.05;;;29.52;;
11837;SDS011;5978;51.020;6.764;2023-02-11T14:46:30;65.65;;;29.40;;
11837;SDS011;5978;51.020;6.764;2023-02-11T14:48:59;59.00;;;28.50;;
11837;SDS011;5978;51.020;6.764;2023-02-11T14:51:27;59.80;;;29.15;;
11837;SDS011;5978;51.020;6.764;2023-02-11T14:54:00;60.40;;;29.85;;
11837;SDS011;5978;51.020;6.764;2023-02-11T14:56:43;61.72;;;29.77;;
11837;SDS011;5978;51.020;6.764;2023-02-11T14:59:17;61.40;;;31.33;;
11837;SDS011;5978;51.020;6.764;2023-02-11T15:01:48;60.00;;;30.58;;
11837;SDS011;5978;51.020;6.764;2023-02-11T15:04:47;62.83;;;29.67;;
11837;SDS011;5978;51.020;6.764;2023-02-11T15:07:09;59.90;;;31.60;;
11837;SDS011;5978;51.020;6.764;2023-02-11T15:09:42;66.90;;;29.88;;
11837;SDS011;5978;51.020;6.764;2023-02-11T15:12:17;60.88;;;31.92;;
11837;SDS011;5978;51.020;6.764;2023-02-11T15:14:48;63.63;;;30.90;;
11837;SDS011;5978;51.020;6.764;2023-02-11T15:17:18;68.72;;;30.30;;
11837;SDS011;5978;51.020;6.764;2023-02-11T15:19:48;66.05;;;32.10;;
11837;SDS011;5978;51.020;6.764;2023-02-11T15:22:18;62.03;;;28.48;;
11837;SDS011;5978;51.020;6.764;2023-02-11T15:27:50;62.13;;;29.13;;
11837;SDS011;5978;51.020;6.764;2023-02-11T15:32:48;67.75;;;31.38;;
11837;SDS011;5978;51.020;6.764;2023-02-11T15:35:14;63.58;;;30.92;;
11837;SDS011;5978;51.020;6.764;2023-02-11T15:37:41;63.28;;;29.98;;
11837;SDS011;5978;51.020;6.764;2023-02-11T15:40:13;59.87;;;31.07;;
11837;SDS011;5978;51.020;6.764;2023-02-11T15:45:28;49.80;;;27.77;;
11837;SDS011;5978;51.020;6.764;2023-02-11T15:48:12;67.70;;;31.65;;
11837;SDS011;5978;51.020;6.764;2023-02-11T15:50:54;66.45;;;30.38;;
11837;SDS011;5978;51.020;6.764;2023-02-11T15:56:06;63.35;;;29.38;;
11837;SDS011;5978;51.020;6.764;2023-02-11T15:58:37;63.80;;;30.73;;
11837;SDS011;5978;51.020;6.764;2023-02-11T16:01:05;64.53;;;28.67;;
11837;SDS011;5978;51.020;6.764;2023-02-11T16:03:32;60.30;;;31.58;;
11837;SDS011;5978;51.020;6.764;2023-02-11T16:08:57;56.67;;;29.73;;
11837;SDS011;5978;51.020;6.764;2023-02-11T16:11:26;53.35;;;30.27;;
11837;SDS011;5978;51.020;6.764;2023-02-11T16:13:55;66.85;;;30.20;;
11837;SDS011;5978;51.020;6.764;2023-02-11T16:16:23;62.03;;;28.17;;
11837;SDS011;5978;51.020;6.764;2023-02-11T16:18:53;59.83;;;30.50;;
11837;SDS011;5978;51.020;6.764;2023-02-11T16:21:21;60.13;;;28.02;;
11837;SDS011;5978;51.020;6.764;2023-02-11T16:23:55;62.72;;;29.02;;
11837;SDS011;5978;51.020;6.764;2023-02-11T16:26:38;65.07;;;30.65;;
11837;SDS011;5978;51.020;6.764;2023-02-11T16:29:11;52.65;;;27.42;;
11837;SDS011;5978;51.020;6.764;2023-02-11T16:31:41;68.90;;;31.08;;
11837;SDS011;5978;51.020;6.764;2023-02-11T16:36:41;56.78;;;29.20;;
11837;SDS011;5978;51.020;6.764;2023-02-11T16:39:07;60.30;;;31.13;;
11837;SDS011;5978;51.020;6.764;2023-02-11T16:41:33;76.00;;;30.53;;
11837;SDS011;5978;51.020;6.764;2023-02-11T16:43:58;66.67;;;31.93;;
11837;SDS011;5978;51.020;6.764;2023-02-11T16:46:24;56.63;;;29.47;;
11837;SDS011;5978;51.020;6.764;2023-02-11T16:48:51;62.42;;;30.35;;
11837;SDS011;5978;51.020;6.764;2023-02-11T16:51:18;65.57;;;29.17;;
11837;SDS011;5978;51.020;6.764;2023-02-11T16:53:43;59.83;;;27.13;;
11837;SDS011;5978;51.020;6.764;2023-02-11T16:56:16;53.23;;;26.03;;
11837;SDS011;5978;51.020;6.764;2023-02-11T16:58:42;71.13;;;31.00;;
11837;SDS011;5978;51.020;6.764;2023-02-11T17:01:09;60.05;;;28.67;;
11837;SDS011;5978;51.020;6.764;2023-02-11T17:03:35;65.88;;;28.77;;
11837;SDS011;5978;51.020;6.764;2023-02-11T17:06:07;59.85;;;29.50;;
11837;SDS011;5978;51.020;6.764;2023-02-11T17:08:35;75.88;;;34.70;;
11837;SDS011;5978;51.020;6.764;2023-02-11T17:11:01;64.45;;;30.90;;
11837;SDS011;5978;51.020;6.764;2023-02-11T17:13:27;67.75;;;33.90;;
11837;SDS011;5978;51.020;6.764;2023-02-11T17:15:53;63.90;;;31.17;;
11837;SDS011;5978;51.020;6.764;2023-02-11T17:18:18;68.60;;;30.50;;
11837;SDS011;5978;51.020;6.764;2023-02-11T17:20:44;72.37;;;33.40;;
11837;SDS011;5978;51.020;6.764;2023-02-11T17:23:09;67.57;;;30.10;;
11837;SDS011;5978;51.020;6.764;2023-02-11T17:25:35;66.90;;;30.33;;
11837;SDS011;5978;51.020;6.764;2023-02-11T17:28:02;70.80;;;30.27;;